Terminal Aerodrome Forecast
Issued by NWS

Home | Current Version | Previous Version | Text Only | Print | Product List | Glossary On
Versions: 1 2 3 4 5 6 7 8 9 10 11 12 13 14 15 16 17 18 19 20 21 22 23 24 25 26 27 28 29 30 31 32 33
000
FTUS41 KOKX 011730
TAFHPN
TAF
KHPN 011730Z 0118/0218 30010G16KT P6SM FEW050
     FM012300 31005KT P6SM SKC
     FM020500 VRB03KT P6SM FEW040 SCT250
     FM021200 22004KT P6SM SCT040 BKN150
     FM021400 21008KT P6SM FEW050 SCT250
     FM021700 21011KT P6SM SCT050 BKN250
      AMD NOT SKED=

USA.gov is the U.S. government's official web portal to all federal, state and local government web resources and services.